Micanopy, Florida
Current Conditions -  °F | °C
As of 9:53 PM on Thursday 27 Nov 2014 (Local Time) from KGNV Reporting Station
Clear Clear  
Wind Chill: 42°   Ceiling: Unl
Heat Index: 44°   Visibility: 10mi
Dew Point: 35°   Wind: 5mph
Humidity: 71%   Direction: 320°NW
Pressure: 30.32"   Gusts: NA
Location:  29.5°N, 82.28°W
Report Text: KGNV 280253Z 32004KT 10SM CLR 07/02 A3032 RMK AO2 SLP269 T00670017 51015
Loading
Personal Weather Stations






























Interactive Weather Map New forecast layout! Learn more

10-Day Weather Forecast

Advertisements
Track Severe Weather on mobile